createdAt,value
2023-02-24T00:09:42.571Z,1002.9
2023-02-24T00:19:42.569Z,1002.9
2023-02-24T00:29:42.657Z,1002.7
2023-02-24T00:39:42.575Z,1002.7
2023-02-24T00:49:42.449Z,1002.6
2023-02-24T00:59:42.517Z,1002.5
2023-02-24T01:09:42.428Z,1002.3
2023-02-24T01:19:42.355Z,1002.2
2023-02-24T01:29:42.296Z,1002
2023-02-24T01:39:42.294Z,1001.9
2023-02-24T01:49:42.258Z,1001.8
2023-02-24T01:59:42.214Z,1001.8
2023-02-24T02:09:42.233Z,1001.7
2023-02-24T02:19:42.160Z,1001.7
2023-02-24T02:29:42.147Z,1001.6
2023-02-24T02:39:42.179Z,1001.5
2023-02-24T02:49:42.091Z,1001.4
2023-02-24T02:59:42.125Z,1001.3
2023-02-24T03:09:42.036Z,1001.2
2023-02-24T03:19:42.014Z,1001.1
2023-02-24T03:29:41.968Z,1001
2023-02-24T03:39:41.954Z,1000.9
2023-02-24T03:49:41.998Z,1000.8
2023-02-24T03:59:41.930Z,1000.7
2023-02-24T04:09:41.871Z,1000.7
2023-02-24T04:19:41.865Z,1000.7
2023-02-24T04:29:41.846Z,1000.7
2023-02-24T04:39:41.814Z,1000.7
2023-02-24T04:49:41.774Z,1000.6
2023-02-24T04:59:41.782Z,1000.5
2023-02-24T05:09:41.727Z,1000.4
2023-02-24T05:19:41.704Z,1000.3
2023-02-24T05:29:41.693Z,1000.3
2023-02-24T05:39:41.693Z,1000.3
2023-02-24T05:49:41.692Z,1000.2
2023-02-24T05:59:41.601Z,1000.1
2023-02-24T06:09:41.581Z,1000
2023-02-24T06:19:41.566Z,999.9
2023-02-24T06:29:41.540Z,999.8
2023-02-24T06:39:41.598Z,999.8
2023-02-24T06:49:41.470Z,999.7
2023-02-24T06:59:41.489Z,999.7
2023-02-24T07:09:41.516Z,999.7
2023-02-24T07:19:41.443Z,999.7
2023-02-24T07:29:41.430Z,999.7
2023-02-24T07:39:41.378Z,999.6
2023-02-24T07:49:41.333Z,999.5
2023-02-24T07:59:41.317Z,999.4
2023-02-24T08:09:41.440Z,999.2
2023-02-24T08:19:41.384Z,999
2023-02-24T08:29:41.248Z,998.8
2023-02-24T08:39:41.254Z,998.7
2023-02-24T08:49:41.283Z,998.7
2023-02-24T08:59:41.230Z,998.5
2023-02-24T09:09:41.142Z,998.4
2023-02-24T09:19:41.218Z,998.3
2023-02-24T09:29:41.232Z,998.2
2023-02-24T09:39:41.139Z,998.2
2023-02-24T09:49:41.102Z,998.1
2023-02-24T09:59:41.036Z,998
2023-02-24T10:09:41.066Z,998
2023-02-24T10:19:40.977Z,997.8
2023-02-24T10:29:40.955Z,997.6
2023-02-24T10:39:40.912Z,997.6
2023-02-24T10:49:40.891Z,997.5
2023-02-24T10:59:40.864Z,997.4
2023-02-24T11:09:40.906Z,997.2
2023-02-24T11:19:40.858Z,997.1
2023-02-24T11:29:40.796Z,996.9
2023-02-24T11:39:40.766Z,996.7
2023-02-24T11:49:40.724Z,996.6
2023-02-24T11:59:40.758Z,996.4
2023-02-24T12:09:40.698Z,996.2
2023-02-24T12:19:40.728Z,996
2023-02-24T12:29:40.664Z,995.8
2023-02-24T12:39:40.586Z,995.7
2023-02-24T12:49:40.597Z,995.6
2023-02-24T12:59:40.565Z,995.5
2023-02-24T13:09:40.547Z,995.4
2023-02-24T13:19:40.490Z,995.2
2023-02-24T13:29:40.481Z,995.1
2023-02-24T13:39:40.451Z,995
2023-02-24T13:49:40.424Z,994.9
2023-02-24T13:59:40.413Z,994.8
2023-02-24T14:09:40.380Z,994.6
2023-02-24T14:19:40.391Z,994.5
2023-02-24T14:29:40.369Z,994.4
2023-02-24T14:39:40.404Z,994.2
2023-02-24T14:49:40.279Z,994.2
2023-02-24T14:59:40.243Z,994
2023-02-24T15:09:40.246Z,993.8
2023-02-24T15:19:40.267Z,993.8
2023-02-24T15:29:40.180Z,993.6
2023-02-24T15:39:40.175Z,993.5
2023-02-24T15:49:40.143Z,993.4
2023-02-24T15:59:40.104Z,993.2
2023-02-24T16:09:40.077Z,993.1
2023-02-24T16:19:40.050Z,993.1
2023-02-24T16:29:40.069Z,993.1
2023-02-24T16:39:40.006Z,993
2023-02-24T16:49:40.000Z,992.9
2023-02-24T16:59:39.966Z,992.9
2023-02-24T17:09:39.952Z,992.9
2023-02-24T17:19:39.917Z,992.8
2023-02-24T17:29:39.882Z,992.8
2023-02-24T17:39:39.844Z,992.9
2023-02-24T17:49:39.911Z,992.9
2023-02-24T17:59:39.815Z,992.9
2023-02-24T18:09:39.776Z,992.9
2023-02-24T18:19:39.760Z,993.1
2023-02-24T18:29:39.739Z,993.1
2023-02-24T18:39:39.726Z,993
2023-02-24T18:49:39.694Z,992.9
2023-02-24T18:59:39.664Z,992.9
2023-02-24T19:09:39.634Z,993
2023-02-24T19:19:39.590Z,993
2023-02-24T19:29:39.598Z,993.1
2023-02-24T19:39:39.540Z,993.2
2023-02-24T19:49:39.547Z,993.2
2023-02-24T19:59:39.530Z,993.4
2023-02-24T20:09:39.449Z,993.5
2023-02-24T20:19:39.446Z,993.6
2023-02-24T20:29:39.448Z,993.6
2023-02-24T20:39:39.395Z,993.7
2023-02-24T20:49:39.505Z,993.8
2023-02-24T20:59:39.337Z,993.9
2023-02-24T21:09:39.347Z,993.9
2023-02-24T21:19:39.290Z,994
2023-02-24T21:29:39.298Z,994
2023-02-24T21:39:39.359Z,994
2023-02-24T21:49:39.228Z,994.2
2023-02-24T21:59:39.174Z,994.2
2023-02-24T22:09:39.209Z,994.2
2023-02-24T22:19:39.212Z,994.2
2023-02-24T22:29:39.115Z,994.2
2023-02-24T22:39:39.164Z,994.3
2023-02-24T22:49:39.064Z,994.3
2023-02-24T22:59:39.032Z,994.4
2023-02-24T23:09:39.031Z,994.4
2023-02-24T23:19:39.064Z,994.5
2023-02-24T23:29:38.949Z,994.6
2023-02-24T23:39:38.937Z,994.7
2023-02-24T23:49:39.055Z,994.8
2023-02-24T23:59:38.963Z,994.9
